Time;durP1;ratioP1;P1;durP2;ratioP2;P2;SDS_P1;SDS_P2;PMS_P1;PMS_P2;Temp;Humidity;BMP_temperature;BMP_pressure;BME280_temperature;BME280_humidity;BME280_pressure;Samples;Min_cycle;Max_cycle;Signal;HPM_P1;HPM_P2
2022/11/13 00:02:35;;;;;;;50.42;31.27;;;;;;;;;;6233062;28;20128;-61
2022/11/13 00:05:37;;;;;;;68.35;39.97;;;;;;;;;;6241942;28;20329;-61
2022/11/13 00:08:38;;;;;;;106.25;60.42;;;;;;;;;;6239585;28;20053;-61
2022/11/13 00:11:41;;;;;;;81.18;46.60;;;;;;;;;;6240373;28;20092;-60
2022/11/13 00:14:44;;;;;;;67.50;38.67;;;;;;;;;;6241565;28;20053;-61
2022/11/13 00:17:45;;;;;;;35.13;22.33;;;;;;;;;;6235911;28;20049;-61
2022/11/13 00:20:47;;;;;;;28.40;18.70;;;;;;;;;;6242163;28;22232;-61
2022/11/13 00:23:49;;;;;;;22.95;16.75;;;;;;;;;;6235816;28;20095;-61
2022/11/13 00:26:52;;;;;;;24.50;16.27;;;;;;;;;;6240719;28;20049;-61
2022/11/13 00:29:54;;;;;;;19.65;15.40;;;;;;;;;;6238781;28;20049;-62
2022/11/13 00:32:55;;;;;;;22.38;15.45;;;;;;;;;;6239228;28;20061;-62
2022/11/13 00:36:02;;;;;;;19.38;14.15;;;;;;;;;;6238086;28;20049;-61
2022/11/13 00:39:04;;;;;;;20.90;15.00;;;;;;;;;;6235467;28;20293;-61
2022/11/13 00:42:07;;;;;;;20.48;14.63;;;;;;;;;;6237197;28;20053;-62
2022/11/13 00:45:10;;;;;;;20.65;15.43;;;;;;;;;;6239060;28;20057;-62
2022/11/13 00:48:11;;;;;;;18.55;14.52;;;;;;;;;;6240040;28;20625;-61
2022/11/13 00:51:13;;;;;;;19.80;15.32;;;;;;;;;;6240704;28;20050;-60
2022/11/13 00:54:15;;;;;;;21.38;14.75;;;;;;;;;;6236273;28;20062;-61
2022/11/13 00:57:18;;;;;;;19.98;14.80;;;;;;;;;;6236830;28;20049;-61
2022/11/13 01:00:19;;;;;;;21.25;14.13;;;;;;;;;;6242727;28;20048;-61
2022/11/13 01:03:21;;;;;;;20.23;14.90;;;;;;;;;;6241824;28;20099;-61
2022/11/13 01:06:24;;;;;;;19.20;14.07;;;;;;;;;;6237234;28;20076;-61
2022/11/13 01:09:26;;;;;;;19.67;13.68;;;;;;;;;;6238749;28;20049;-62
2022/11/13 01:12:29;;;;;;;19.48;12.82;;;;;;;;;;6241049;28;20049;-60
2022/11/13 01:15:30;;;;;;;20.10;12.82;;;;;;;;;;6243724;28;20103;-61
2022/11/13 01:18:32;;;;;;;18.25;12.98;;;;;;;;;;6239144;28;20037;-62
2022/11/13 01:21:34;;;;;;;17.00;12.55;;;;;;;;;;6239834;28;20056;-62
2022/11/13 01:24:35;;;;;;;17.48;12.05;;;;;;;;;;6236136;28;20053;-61
2022/11/13 01:27:38;;;;;;;17.35;13.10;;;;;;;;;;6233186;28;20049;-61
2022/11/13 01:30:40;;;;;;;17.52;12.63;;;;;;;;;;6235002;28;20375;-61
2022/11/13 01:33:42;;;;;;;19.05;12.52;;;;;;;;;;6242481;28;20074;-62
2022/11/13 01:36:43;;;;;;;17.08;12.05;;;;;;;;;;6240926;28;20053;-61
2022/11/13 01:39:45;;;;;;;13.23;10.57;;;;;;;;;;6236868;28;20068;-61
2022/11/13 01:42:48;;;;;;;16.65;10.77;;;;;;;;;;6239056;28;20057;-61
2022/11/13 01:46:09;;;;;;;15.90;10.93;;;;;;;;;;6236697;28;20053;-62
2022/11/13 01:49:20;;;;;;;14.73;10.50;;;;;;;;;;6227073;28;20050;-61
2022/11/13 01:52:24;;;;;;;15.80;10.98;;;;;;;;;;6239691;28;20041;-61
2022/11/13 01:55:26;;;;;;;15.52;10.30;;;;;;;;;;6241133;28;20062;-64
2022/11/13 01:58:29;;;;;;;18.25;11.02;;;;;;;;;;6237505;28;21212;-61
2022/11/13 02:01:31;;;;;;;13.50;10.45;;;;;;;;;;6237824;28;20046;-61
2022/11/13 02:04:33;;;;;;;14.02;10.10;;;;;;;;;;6236407;28;20057;-61
2022/11/13 02:07:35;;;;;;;14.93;10.30;;;;;;;;;;6241379;28;20339;-61
2022/11/13 02:10:37;;;;;;;13.77;9.88;;;;;;;;;;6236592;28;20054;-61
2022/11/13 02:13:40;;;;;;;14.63;10.30;;;;;;;;;;6242870;28;20102;-62
2022/11/13 02:16:43;;;;;;;14.82;9.70;;;;;;;;;;6237191;28;20048;-61
2022/11/13 02:19:48;;;;;;;13.63;9.87;;;;;;;;;;6236676;28;20058;-62
2022/11/13 02:22:52;;;;;;;14.27;10.50;;;;;;;;;;6235797;28;20068;-62
2022/11/13 02:25:55;;;;;;;;;;;;;;;;;;6237062;28;20068;-61
2022/11/13 02:28:56;;;;;;;15.13;9.55;;;;;;;;;;6236604;28;19917;-61
2022/11/13 02:31:58;;;;;;;16.08;9.20;;;;;;;;;;6236539;28;20349;-62
2022/11/13 02:35:00;;;;;;;14.02;9.80;;;;;;;;;;6238470;28;20052;-62
2022/11/13 02:38:04;;;;;;;13.52;9.98;;;;;;;;;;6239899;28;20050;-61
2022/11/13 02:41:07;;;;;;;13.93;9.18;;;;;;;;;;6240849;28;20041;-62
2022/11/13 02:44:09;;;;;;;13.43;9.65;;;;;;;;;;6247154;28;20061;-62
2022/11/13 02:47:10;;;;;;;12.68;8.70;;;;;;;;;;6242476;28;20089;-62
2022/11/13 02:50:13;;;;;;;13.88;9.57;;;;;;;;;;6243054;28;20121;-63
2022/11/13 02:53:14;;;;;;;12.57;9.02;;;;;;;;;;6240672;28;20065;-63
2022/11/13 02:56:17;;;;;;;15.25;9.95;;;;;;;;;;6241595;28;20057;-62
2022/11/13 02:59:19;;;;;;;13.52;9.23;;;;;;;;;;6242944;28;20099;-61
2022/11/13 03:02:21;;;;;;;12.40;8.68;;;;;;;;;;6243894;28;20266;-61
2022/11/13 03:05:23;;;;;;;12.25;9.07;;;;;;;;;;6242441;28;20049;-62
2022/11/13 03:08:25;;;;;;;13.00;9.65;;;;;;;;;;6239895;28;20388;-62
2022/11/13 03:11:28;;;;;;;13.32;9.00;;;;;;;;;;6244295;28;20046;-62
2022/11/13 03:14:29;;;;;;;13.85;9.60;;;;;;;;;;6239644;28;20104;-62
2022/11/13 03:17:31;;;;;;;14.38;9.45;;;;;;;;;;6242141;28;20053;-62
2022/11/13 03:20:35;;;;;;;12.65;9.50;;;;;;;;;;6240182;28;20060;-62
2022/11/13 03:23:37;;;;;;;;;;;;;;;;;;6235509;28;20333;-62
2022/11/13 03:26:40;;;;;;;13.27;9.05;;;;;;;;;;6239695;28;19921;-62
2022/11/13 03:29:41;;;;;;;14.85;9.07;;;;;;;;;;6240722;28;20096;-62
2022/11/13 03:32:43;;;;;;;14.30;8.23;;;;;;;;;;6245580;28;20099;-62
2022/11/13 03:35:44;;;;;;;11.27;8.52;;;;;;;;;;6241650;28;20053;-62
2022/11/13 03:38:46;;;;;;;12.20;8.43;;;;;;;;;;6245891;28;20338;-61
2022/11/13 03:41:49;;;;;;;13.30;9.00;;;;;;;;;;6241878;28;20218;-61
2022/11/13 03:44:51;;;;;;;11.47;8.13;;;;;;;;;;6240353;28;20329;-61
2022/11/13 03:47:52;;;;;;;11.02;8.20;;;;;;;;;;6241943;28;20341;-62
2022/11/13 03:50:55;;;;;;;11.50;8.30;;;;;;;;;;6240740;28;20234;-62
2022/11/13 03:53:57;;;;;;;10.00;7.38;;;;;;;;;;6238789;28;20057;-61
2022/11/13 03:57:00;;;;;;;12.20;8.05;;;;;;;;;;6241206;28;20284;-62
2022/11/13 04:00:02;;;;;;;11.20;8.20;;;;;;;;;;6242261;28;20061;-61
2022/11/13 04:03:04;;;;;;;13.23;8.52;;;;;;;;;;6239426;28;20077;-62
2022/11/13 04:06:06;;;;;;;12.15;8.77;;;;;;;;;;6241288;28;20342;-62
2022/11/13 04:09:07;;;;;;;10.10;7.80;;;;;;;;;;6243152;28;20072;-61
2022/11/13 04:12:10;;;;;;;11.13;7.70;;;;;;;;;;6246637;28;20609;-62
2022/11/13 04:15:12;;;;;;;11.80;8.55;;;;;;;;;;6242202;28;20111;-62
2022/11/13 04:18:14;;;;;;;10.98;7.63;;;;;;;;;;6238406;28;20056;-62
2022/11/13 04:21:15;;;;;;;10.85;7.57;;;;;;;;;;6240392;28;20091;-62
2022/11/13 04:24:17;;;;;;;11.05;8.05;;;;;;;;;;6238024;28;20095;-61
2022/11/13 04:27:20;;;;;;;10.65;7.88;;;;;;;;;;6238888;28;20357;-61
2022/11/13 04:30:21;;;;;;;10.85;8.32;;;;;;;;;;6239421;28;20049;-62
2022/11/13 04:33:23;;;;;;;11.30;8.38;;;;;;;;;;6241427;28;20219;-62
2022/11/13 04:36:25;;;;;;;10.10;7.65;;;;;;;;;;6240439;28;20317;-62
2022/11/13 04:39:26;;;;;;;12.23;7.82;;;;;;;;;;6239404;28;20214;-62
2022/11/13 04:45:52;;;;;;;10.93;7.63;;;;;;;;;;6237624;28;20393;-62
2022/11/13 04:48:53;;;;;;;11.23;7.75;;;;;;;;;;6241417;28;20111;-61
2022/11/13 04:51:55;;;;;;;10.82;7.35;;;;;;;;;;6239903;28;20194;-62
2022/11/13 04:54:57;;;;;;;10.45;7.07;;;;;;;;;;6240063;28;20100;-62
2022/11/13 04:58:00;;;;;;;10.45;7.43;;;;;;;;;;6242288;28;20282;-62
2022/11/13 05:01:02;;;;;;;12.23;7.88;;;;;;;;;;6238911;28;20136;-62
2022/11/13 05:04:04;;;;;;;9.77;7.35;;;;;;;;;;6236856;28;20076;-62
2022/11/13 05:07:06;;;;;;;11.82;7.43;;;;;;;;;;6237696;28;20383;-62
2022/11/13 05:10:08;;;;;;;11.38;7.40;;;;;;;;;;6237740;28;20462;-62
2022/11/13 05:13:11;;;;;;;10.48;7.03;;;;;;;;;;6241216;28;20108;-61
2022/11/13 05:16:14;;;;;;;8.90;7.15;;;;;;;;;;6237188;28;20046;-62
2022/11/13 05:19:16;;;;;;;8.70;6.70;;;;;;;;;;6242755;28;20060;-62
2022/11/13 05:22:18;;;;;;;11.57;7.28;;;;;;;;;;6238881;28;20042;-62
2022/11/13 05:25:19;;;;;;;8.75;6.63;;;;;;;;;;6238226;28;20092;-61
2022/11/13 05:28:22;;;;;;;9.65;6.88;;;;;;;;;;6214750;28;20058;-62
2022/11/13 05:31:25;;;;;;;9.25;7.18;;;;;;;;;;6215064;28;20058;-62
2022/11/13 05:34:26;;;;;;;8.43;6.93;;;;;;;;;;6214950;28;20053;-62
2022/11/13 05:37:29;;;;;;;9.07;6.75;;;;;;;;;;6214305;28;20054;-61
2022/11/13 05:40:30;;;;;;;9.95;7.32;;;;;;;;;;6217099;28;20137;-61
2022/11/13 05:43:34;;;;;;;10.68;7.38;;;;;;;;;;6218450;28;20117;-62
2022/11/13 05:46:35;;;;;;;9.80;7.00;;;;;;;;;;6215874;28;20246;-62
2022/11/13 05:49:37;;;;;;;8.50;6.47;;;;;;;;;;6216094;28;20477;-61
2022/11/13 05:52:38;;;;;;;12.73;6.60;;;;;;;;;;6217812;28;20753;-62
2022/11/13 05:55:40;;;;;;;8.73;6.38;;;;;;;;;;6214244;28;20051;-62
2022/11/13 05:58:44;;;;;;;8.32;6.40;;;;;;;;;;6216164;28;20050;-62
2022/11/13 06:01:45;;;;;;;14.15;6.88;;;;;;;;;;6217204;28;20230;-62
2022/11/13 06:04:48;;;;;;;8.38;6.10;;;;;;;;;;6214303;28;20361;-62
2022/11/13 06:07:50;;;;;;;8.85;6.20;;;;;;;;;;6214502;28;20058;-62
2022/11/13 06:10:51;;;;;;;8.27;6.20;;;;;;;;;;6219755;28;20095;-61
2022/11/13 06:13:55;;;;;;;9.43;5.70;;;;;;;;;;6224732;28;20101;-62
2022/11/13 06:16:57;;;;;;;9.27;6.57;;;;;;;;;;6219089;28;20049;-62
2022/11/13 06:19:59;;;;;;;6.90;5.70;;;;;;;;;;6224149;28;20051;-62
2022/11/13 06:23:00;;;;;;;9.05;6.50;;;;;;;;;;6222415;28;20376;-62
2022/11/13 06:26:02;;;;;;;8.10;6.15;;;;;;;;;;6226437;28;20057;-62
2022/11/13 06:29:07;;;;;;;8.85;5.70;;;;;;;;;;6239540;28;20053;-61
2022/11/13 06:32:08;;;;;;;7.70;5.35;;;;;;;;;;6244568;28;20053;-62
2022/11/13 06:35:10;;;;;;;8.02;5.93;;;;;;;;;;6240940;28;20054;-61
2022/11/13 06:38:12;;;;;;;8.38;5.90;;;;;;;;;;6242970;28;20601;-61
2022/11/13 06:41:18;;;;;;;9.27;5.95;;;;;;;;;;6238361;28;20057;-62
2022/11/13 06:44:21;;;;;;;9.38;6.38;;;;;;;;;;6239986;28;20054;-61
2022/11/13 06:47:22;;;;;;;7.95;6.00;;;;;;;;;;6240840;28;20208;-61
2022/11/13 06:50:24;;;;;;;9.32;6.07;;;;;;;;;;6242684;28;20120;-62
2022/11/13 06:53:26;;;;;;;8.30;6.00;;;;;;;;;;6242734;28;20100;-61
2022/11/13 06:56:27;;;;;;;8.75;5.90;;;;;;;;;;6241958;28;20086;-62
2022/11/13 06:59:30;;;;;;;8.00;6.13;;;;;;;;;;6244894;28;20153;-61
2022/11/13 07:02:32;;;;;;;7.05;5.55;;;;;;;;;;6242829;28;20374;-61
2022/11/13 07:05:36;;;;;;;7.45;5.80;;;;;;;;;;6247120;28;20112;-61
2022/11/13 07:08:38;;;;;;;7.47;5.40;;;;;;;;;;6242646;28;20329;-62
2022/11/13 07:11:39;;;;;;;8.38;5.80;;;;;;;;;;6240907;28;20221;-62
2022/11/13 07:14:42;;;;;;;8.50;5.68;;;;;;;;;;6245321;28;20056;-62
2022/11/13 07:17:44;;;;;;;8.43;5.93;;;;;;;;;;6240370;28;20344;-62
2022/11/13 07:20:46;;;;;;;8.98;5.95;;;;;;;;;;6235458;28;20053;-63
2022/11/13 07:23:48;;;;;;;6.88;5.43;;;;;;;;;;6240269;28;20333;-64
2022/11/13 07:26:50;;;;;;;6.75;5.10;;;;;;;;;;6243119;28;20053;-64
2022/11/13 07:29:53;;;;;;;7.30;5.03;;;;;;;;;;6238875;28;20293;-63
2022/11/13 07:32:54;;;;;;;6.40;4.80;;;;;;;;;;6242514;28;20057;-63
2022/11/13 07:35:56;;;;;;;6.43;5.55;;;;;;;;;;6245249;28;20091;-62
2022/11/13 07:38:58;;;;;;;7.47;5.40;;;;;;;;;;6243918;28;20046;-62
2022/11/13 07:42:00;;;;;;;7.22;4.97;;;;;;;;;;6240406;28;20049;-62
2022/11/13 07:45:03;;;;;;;6.68;5.30;;;;;;;;;;6238526;28;20050;-62
2022/11/13 07:48:05;;;;;;;;;;;;;;;;;;6243290;28;20048;-62
2022/11/13 07:51:07;;;;;;;8.57;5.25;;;;;;;;;;6240552;28;20197;-63
2022/11/13 07:54:08;;;;;;;8.15;5.72;;;;;;;;;;6242161;28;20328;-62
2022/11/13 07:57:10;;;;;;;8.02;5.55;;;;;;;;;;6242670;28;20049;-62
2022/11/13 08:00:14;;;;;;;9.25;6.10;;;;;;;;;;6240544;28;20066;-62
2022/11/13 08:03:18;;;;;;;8.70;5.70;;;;;;;;;;6242007;28;20198;-62
2022/11/13 08:06:20;;;;;;;7.72;5.90;;;;;;;;;;6241667;28;20060;-62
2022/11/13 08:09:22;;;;;;;6.22;5.05;;;;;;;;;;6241828;28;20061;-62
2022/11/13 08:12:23;;;;;;;6.85;5.20;;;;;;;;;;6240878;28;20119;-63
2022/11/13 08:15:26;;;;;;;7.55;5.45;;;;;;;;;;6242701;28;20045;-61
2022/11/13 08:18:28;;;;;;;8.57;5.30;;;;;;;;;;6240868;28;20297;-61
2022/11/13 08:21:30;;;;;;;7.03;5.07;;;;;;;;;;6242942;28;20117;-61
2022/11/13 08:24:32;;;;;;;8.13;5.20;;;;;;;;;;6240637;28;20041;-61
2022/11/13 08:27:33;;;;;;;6.40;4.97;;;;;;;;;;6240580;28;20072;-61
2022/11/13 08:30:36;;;;;;;6.75;5.22;;;;;;;;;;6242178;28;20112;-62
2022/11/13 08:33:38;;;;;;;6.50;5.13;;;;;;;;;;6237851;28;20928;-61
2022/11/13 08:36:39;;;;;;;7.25;4.90;;;;;;;;;;6243389;28;20136;-61
2022/11/13 08:39:41;;;;;;;7.93;5.18;;;;;;;;;;6240244;28;20049;-61
2022/11/13 08:42:43;;;;;;;6.43;4.75;;;;;;;;;;6244282;28;20045;-61
2022/11/13 08:45:46;;;;;;;6.55;4.82;;;;;;;;;;6236906;28;20057;-61
2022/11/13 08:48:48;;;;;;;5.95;4.80;;;;;;;;;;6241171;28;20049;-62
2022/11/13 08:51:50;;;;;;;6.13;4.82;;;;;;;;;;6238832;28;20104;-61
2022/11/13 08:54:51;;;;;;;8.30;4.30;;;;;;;;;;6241500;28;20052;-61
2022/11/13 08:57:53;;;;;;;6.22;4.38;;;;;;;;;;6239242;28;20050;-62
2022/11/13 09:01:00;;;;;;;6.35;4.22;;;;;;;;;;6238525;28;20069;-62
2022/11/13 09:04:02;;;;;;;4.68;3.80;;;;;;;;;;6238344;28;20167;-61
2022/11/13 09:07:04;;;;;;;5.15;3.70;;;;;;;;;;6237200;28;20141;-61
2022/11/13 09:10:06;;;;;;;4.72;3.50;;;;;;;;;;6237396;28;20053;-62
2022/11/13 09:13:10;;;;;;;5.63;3.10;;;;;;;;;;6238782;28;20042;-62
2022/11/13 09:16:13;;;;;;;3.88;3.03;;;;;;;;;;6240139;28;20210;-62
2022/11/13 09:19:15;;;;;;;3.10;2.67;;;;;;;;;;6241849;28;20050;-62
2022/11/13 09:22:17;;;;;;;5.72;3.40;;;;;;;;;;6239505;28;20326;-61
2022/11/13 09:25:18;;;;;;;3.38;2.42;;;;;;;;;;6234453;28;20041;-62
2022/11/13 09:28:20;;;;;;;4.40;2.78;;;;;;;;;;6243262;28;20045;-62
2022/11/13 09:31:23;;;;;;;2.78;2.38;;;;;;;;;;6243381;28;20064;-62
2022/11/13 09:34:25;;;;;;;;;;;;;;;;;;6241204;28;20053;-63
2022/11/13 09:37:27;;;;;;;5.00;2.72;;;;;;;;;;6242643;28;19929;-62
2022/11/13 09:40:32;;;;;;;3.65;2.80;;;;;;;;;;6240788;28;20092;-62
2022/11/13 09:43:36;;;;;;;3.58;2.60;;;;;;;;;;6243039;28;20350;-62
2022/11/13 09:46:42;;;;;;;3.75;2.70;;;;;;;;;;6242146;28;20060;-62
2022/11/13 09:49:46;;;;;;;3.65;2.47;;;;;;;;;;6245248;28;20337;-63
2022/11/13 09:52:50;;;;;;;3.53;2.45;;;;;;;;;;6243329;28;20281;-65
2022/11/13 09:55:57;;;;;;;3.25;2.60;;;;;;;;;;6237971;28;20099;-63
2022/11/13 09:59:19;;;;;;;3.70;2.45;;;;;;;;;;6242425;28;20053;-61
2022/11/13 10:02:25;;;;;;;4.50;2.42;;;;;;;;;;6244825;28;20049;-62
2022/11/13 10:05:37;;;;;;;2.90;2.35;;;;;;;;;;6241041;28;20095;-63
2022/11/13 10:08:47;;;;;;;3.35;2.40;;;;;;;;;;6243065;28;20049;-62
2022/11/13 10:11:54;;;;;;;2.60;2.05;;;;;;;;;;6241295;28;20049;-64
2022/11/13 10:14:57;;;;;;;2.85;2.03;;;;;;;;;;6244340;28;20103;-65
2022/11/13 10:18:05;;;;;;;2.55;2.08;;;;;;;;;;6241543;28;20477;-66
2022/11/13 10:21:12;;;;;;;2.47;2.03;;;;;;;;;;6241968;28;20130;-65
2022/11/13 10:24:17;;;;;;;2.60;2.05;;;;;;;;;;6238598;28;20057;-65
2022/11/13 10:27:19;;;;;;;3.80;2.40;;;;;;;;;;6242442;28;20120;-65
2022/11/13 10:30:21;;;;;;;2.90;2.25;;;;;;;;;;6240484;28;20045;-65
2022/11/13 10:33:24;;;;;;;3.73;2.30;;;;;;;;;;6240071;28;20116;-65
2022/11/13 10:36:32;;;;;;;4.10;2.53;;;;;;;;;;6240069;28;20144;-65
2022/11/13 10:39:41;;;;;;;2.92;2.30;;;;;;;;;;6243271;28;20278;-65
2022/11/13 10:42:43;;;;;;;2.88;2.13;;;;;;;;;;6241280;28;20045;-65
2022/11/13 10:45:55;;;;;;;3.45;2.35;;;;;;;;;;6234827;28;20801;-64
2022/11/13 10:48:59;;;;;;;2.90;2.30;;;;;;;;;;6241554;28;20060;-64
2022/11/13 10:52:01;;;;;;;3.33;2.13;;;;;;;;;;6238493;28;20058;-65
2022/11/13 10:55:16;;;;;;;3.17;2.40;;;;;;;;;;6241128;28;20653;-64
2022/11/13 10:58:19;;;;;;;3.50;2.22;;;;;;;;;;6241690;28;20096;-65
2022/11/13 11:01:22;;;;;;;2.70;1.90;;;;;;;;;;6244824;28;20046;-64
2022/11/13 11:04:27;;;;;;;2.60;2.00;;;;;;;;;;6240849;28;20180;-65
2022/11/13 11:07:28;;;;;;;2.58;1.98;;;;;;;;;;6240015;28;20324;-65
2022/11/13 11:10:33;;;;;;;3.92;2.38;;;;;;;;;;6241379;28;20061;-65
2022/11/13 11:13:35;;;;;;;2.67;2.10;;;;;;;;;;6245189;28;20057;-66
2022/11/13 11:16:37;;;;;;;3.80;2.50;;;;;;;;;;6230613;28;20095;-64
2022/11/13 11:19:41;;;;;;;3.00;2.08;;;;;;;;;;6246439;28;20280;-67
2022/11/13 11:22:44;;;;;;;3.20;2.00;;;;;;;;;;6245060;28;20247;-66
2022/11/13 11:25:50;;;;;;;2.40;2.03;;;;;;;;;;6239191;28;20064;-66
2022/11/13 11:28:59;;;;;;;2.78;1.90;;;;;;;;;;6243857;28;20084;-65
2022/11/13 11:32:04;;;;;;;2.17;1.77;;;;;;;;;;6249640;28;20050;-64
2022/11/13 11:35:13;;;;;;;2.22;1.73;;;;;;;;;;6247654;28;20050;-65
2022/11/13 11:38:19;;;;;;;2.22;1.90;;;;;;;;;;6245078;28;20073;-64
2022/11/13 11:41:26;;;;;;;1.90;1.70;;;;;;;;;;6241772;28;20108;-65
2022/11/13 11:44:32;;;;;;;3.55;2.33;;;;;;;;;;6241018;28;20087;-65
2022/11/13 11:47:33;;;;;;;3.08;2.45;;;;;;;;;;6239627;28;20057;-65
2022/11/13 11:50:39;;;;;;;4.15;2.42;;;;;;;;;;6238880;28;20088;-67
2022/11/13 11:53:48;;;;;;;2.90;2.00;;;;;;;;;;6240319;28;20045;-66
2022/11/13 11:56:52;;;;;;;2.67;2.22;;;;;;;;;;6239298;28;20050;-65
2022/11/13 12:00:04;;;;;;;3.72;2.00;;;;;;;;;;6242421;28;20332;-65
2022/11/13 12:03:29;;;;;;;3.10;2.00;;;;;;;;;;6241269;28;20057;-64
2022/11/13 12:06:41;;;;;;;2.28;1.92;;;;;;;;;;6243220;28;20891;-64
2022/11/13 12:09:48;;;;;;;3.33;2.25;;;;;;;;;;6236057;28;20054;-64
2022/11/13 12:12:59;;;;;;;3.45;2.50;;;;;;;;;;6240959;28;20281;-64
2022/11/13 12:16:06;;;;;;;2.88;2.35;;;;;;;;;;6238692;28;20053;-62
2022/11/13 12:19:14;;;;;;;3.70;2.58;;;;;;;;;;6239108;28;20053;-62
2022/11/13 12:22:24;;;;;;;2.60;2.13;;;;;;;;;;6237989;28;20116;-63
2022/11/13 12:25:30;;;;;;;3.30;2.50;;;;;;;;;;6242384;28;20296;-62
2022/11/13 12:28:38;;;;;;;4.32;2.75;;;;;;;;;;6246834;28;20049;-66
2022/11/13 12:31:48;;;;;;;3.55;2.53;;;;;;;;;;6246189;28;20396;-66
2022/11/13 12:34:52;;;;;;;3.47;2.97;;;;;;;;;;6243948;28;20269;-64
2022/11/13 12:37:58;;;;;;;3.38;2.63;;;;;;;;;;6244565;28;20083;-66
2022/11/13 12:41:09;;;;;;;3.67;2.47;;;;;;;;;;6245637;28;20049;-66
2022/11/13 12:44:20;;;;;;;3.47;2.67;;;;;;;;;;6245427;28;20079;-66
2022/11/13 12:47:22;;;;;;;4.78;2.50;;;;;;;;;;6242981;28;20073;-65
2022/11/13 12:50:27;;;;;;;4.22;3.42;;;;;;;;;;6244394;28;20356;-67
2022/11/13 12:53:31;;;;;;;3.97;3.10;;;;;;;;;;6239647;28;20218;-66
2022/11/13 12:56:33;;;;;;;4.68;2.97;;;;;;;;;;6241050;28;20107;-64
2022/11/13 12:59:36;;;;;;;3.58;2.80;;;;;;;;;;6244847;28;20276;-65
2022/11/13 13:02:56;;;;;;;3.10;2.80;;;;;;;;;;6245240;28;20053;-64
2022/11/13 13:06:09;;;;;;;4.05;2.42;;;;;;;;;;6239577;28;20057;-64
2022/11/13 13:09:34;;;;;;;3.25;2.55;;;;;;;;;;6241825;28;20041;-61
2022/11/13 13:12:44;;;;;;;2.92;2.63;;;;;;;;;;6243381;28;20045;-64
2022/11/13 13:15:47;;;;;;;5.22;3.17;;;;;;;;;;6241845;28;20356;-63
2022/11/13 13:18:48;;;;;;;;;;;;;;;;;;6237509;28;20084;-64
2022/11/13 13:21:50;;;;;;;3.88;2.85;;;;;;;;;;6237385;28;19916;-62
2022/11/13 13:25:00;;;;;;;4.75;3.30;;;;;;;;;;6245487;28;20045;-63
2022/11/13 13:28:04;;;;;;;5.80;3.47;;;;;;;;;;6246512;28;20095;-63
2022/11/13 13:31:15;;;;;;;6.68;3.63;;;;;;;;;;6243861;28;20333;-63
2022/11/13 13:34:25;;;;;;;4.20;3.13;;;;;;;;;;6245825;28;20286;-63
2022/11/13 13:37:33;;;;;;;6.35;3.50;;;;;;;;;;6244530;28;20181;-64
2022/11/13 13:40:41;;;;;;;4.18;3.60;;;;;;;;;;6244697;28;20194;-64
2022/11/13 13:43:53;;;;;;;4.43;3.45;;;;;;;;;;6244731;28;20063;-64
2022/11/13 13:46:56;;;;;;;5.55;3.38;;;;;;;;;;6243606;28;20068;-64
2022/11/13 13:49:57;;;;;;;;;;;;;;;;;;6238211;28;20128;-65
2022/11/13 13:53:00;;;;;;;4.05;3.40;;;;;;;;;;6247874;28;19917;-63
2022/11/13 13:56:04;;;;;;;4.60;3.33;;;;;;;;;;6243235;28;20064;-63
2022/11/13 13:59:06;;;;;;;4.95;3.97;;;;;;;;;;6243262;28;20111;-64
2022/11/13 14:02:15;;;;;;;5.97;3.20;;;;;;;;;;6243613;28;20079;-63
2022/11/13 14:05:24;;;;;;;5.00;3.65;;;;;;;;;;6241166;28;20088;-63
2022/11/13 14:08:27;;;;;;;5.93;3.95;;;;;;;;;;6241394;28;20286;-63
2022/11/13 14:11:30;;;;;;;4.05;3.65;;;;;;;;;;6238344;28;20057;-63
2022/11/13 14:14:32;;;;;;;5.53;4.15;;;;;;;;;;6234647;28;20050;-63
2022/11/13 14:17:34;;;;;;;7.03;4.90;;;;;;;;;;6238028;28;20207;-61
2022/11/13 14:20:40;;;;;;;6.03;4.15;;;;;;;;;;6237191;28;20063;-63
2022/11/13 14:23:44;;;;;;;5.47;3.95;;;;;;;;;;6239353;28;20046;-64
2022/11/13 14:26:47;;;;;;;6.18;4.03;;;;;;;;;;6236396;28;20041;-63
2022/11/13 14:29:50;;;;;;;5.95;3.72;;;;;;;;;;6236666;28;20137;-64
2022/11/13 14:32:52;;;;;;;5.22;4.18;;;;;;;;;;6233380;28;20068;-61
2022/11/13 14:35:56;;;;;;;5.47;3.92;;;;;;;;;;6241655;28;21163;-60
2022/11/13 14:38:58;;;;;;;6.20;3.97;;;;;;;;;;6244599;28;20049;-61
2022/11/13 14:42:01;;;;;;;5.88;4.20;;;;;;;;;;6240781;28;20089;-61
2022/11/13 14:45:13;;;;;;;6.35;4.50;;;;;;;;;;6243501;28;20073;-62
2022/11/13 14:48:20;;;;;;;5.38;4.15;;;;;;;;;;6242276;28;20054;-62
2022/11/13 14:51:24;;;;;;;6.85;4.30;;;;;;;;;;6242449;28;20046;-64
2022/11/13 14:54:31;;;;;;;6.75;4.78;;;;;;;;;;6242071;28;20063;-62
2022/11/13 14:57:34;;;;;;;6.88;4.47;;;;;;;;;;6238818;28;20104;-62
2022/11/13 15:00:38;;;;;;;5.20;4.50;;;;;;;;;;6239844;28;20056;-62
2022/11/13 15:03:39;;;;;;;;;;;;;;;;;;6243796;28;20088;-62
2022/11/13 15:06:41;;;;;;;5.15;4.47;;;;;;;;;;6242973;28;19929;-62
2022/11/13 15:09:42;;;;;;;5.85;4.35;;;;;;;;;;6242021;28;20061;-62
2022/11/13 15:12:47;;;;;;;5.50;4.40;;;;;;;;;;6241406;28;20141;-63
2022/11/13 15:15:49;;;;;;;6.95;4.90;;;;;;;;;;6241479;28;20052;-63
2022/11/13 15:18:53;;;;;;;7.05;4.80;;;;;;;;;;6241046;28;20062;-62
2022/11/13 15:21:55;;;;;;;7.00;4.68;;;;;;;;;;6244998;28;20392;-63
2022/11/13 15:24:57;;;;;;;5.80;4.55;;;;;;;;;;6245999;28;20081;-64
2022/11/13 15:28:00;;;;;;;7.32;5.03;;;;;;;;;;6240543;28;20053;-63
2022/11/13 15:31:02;;;;;;;8.32;5.28;;;;;;;;;;6242315;28;20084;-63
2022/11/13 15:34:04;;;;;;;6.00;4.97;;;;;;;;;;6241580;28;20076;-62
2022/11/13 15:37:12;;;;;;;6.25;4.53;;;;;;;;;;6240041;28;20041;-62
2022/11/13 15:40:14;;;;;;;5.80;4.93;;;;;;;;;;6241828;28;20065;-63
2022/11/13 15:43:19;;;;;;;6.03;5.20;;;;;;;;;;6240245;28;20100;-62
2022/11/13 15:46:22;;;;;;;7.45;5.50;;;;;;;;;;6238833;28;20116;-63
2022/11/13 15:49:24;;;;;;;6.18;5.15;;;;;;;;;;6234172;28;20104;-61
2022/11/13 15:52:27;;;;;;;7.45;5.20;;;;;;;;;;6239073;28;20341;-63
2022/11/13 15:55:31;;;;;;;6.57;5.10;;;;;;;;;;6238660;28;20058;-63
2022/11/13 15:58:34;;;;;;;;;;;;;;;;;;6243276;28;20049;-63
2022/11/13 16:01:36;;;;;;;6.07;5.45;;;;;;;;;;6241355;28;19936;-63
2022/11/13 16:04:38;;;;;;;7.22;5.38;;;;;;;;;;6239395;28;20053;-62
2022/11/13 16:07:40;;;;;;;8.25;5.38;;;;;;;;;;6243709;28;20045;-63
2022/11/13 16:10:41;;;;;;;8.65;5.43;;;;;;;;;;6240177;28;20337;-63
2022/11/13 16:13:45;;;;;;;8.90;5.93;;;;;;;;;;6241708;28;20178;-63
2022/11/13 16:16:46;;;;;;;7.22;5.35;;;;;;;;;;6239462;28;20325;-63
2022/11/13 16:19:50;;;;;;;6.57;5.20;;;;;;;;;;6242577;28;20385;-63
2022/11/13 16:22:52;;;;;;;8.60;5.35;;;;;;;;;;6240003;28;20058;-63
2022/11/13 16:25:54;;;;;;;8.32;5.50;;;;;;;;;;6240604;28;20053;-63
2022/11/13 16:28:57;;;;;;;7.15;6.30;;;;;;;;;;6242201;28;20049;-62
2022/11/13 16:31:59;;;;;;;8.47;5.93;;;;;;;;;;6239029;28;20062;-63
2022/11/13 16:35:00;;;;;;;10.25;5.93;;;;;;;;;;6237573;28;20481;-63
2022/11/13 16:38:02;;;;;;;8.13;5.88;;;;;;;;;;6238409;28;20058;-65
2022/11/13 16:41:04;;;;;;;7.90;6.10;;;;;;;;;;6241085;28;20348;-63
2022/11/13 16:44:07;;;;;;;8.98;6.60;;;;;;;;;;6244192;28;20053;-63
2022/11/13 16:47:22;;;;;;;10.93;6.70;;;;;;;;;;6227846;28;20483;-63
2022/11/13 16:50:25;;;;;;;12.95;7.38;;;;;;;;;;6234326;28;20045;-63
2022/11/13 16:53:28;;;;;;;8.50;6.30;;;;;;;;;;6242466;28;20045;-63
2022/11/13 16:56:30;;;;;;;8.57;6.57;;;;;;;;;;6237230;28;20046;-63
2022/11/13 16:59:33;;;;;;;7.57;6.28;;;;;;;;;;6243618;28;20053;-63
2022/11/13 17:02:34;;;;;;;9.77;6.93;;;;;;;;;;6245634;28;20045;-63
2022/11/13 17:05:36;;;;;;;10.00;6.53;;;;;;;;;;6228037;28;20645;-63
2022/11/13 17:08:37;;;;;;;11.93;7.30;;;;;;;;;;6242597;28;20100;-63
2022/11/13 17:11:39;;;;;;;9.55;7.90;;;;;;;;;;6243281;28;20061;-63
2022/11/13 17:14:42;;;;;;;10.75;7.47;;;;;;;;;;6245648;28;20120;-64
2022/11/13 17:17:44;;;;;;;8.93;6.77;;;;;;;;;;6244606;28;20108;-63
2022/11/13 17:20:50;;;;;;;11.10;7.18;;;;;;;;;;6244185;28;20317;-63
2022/11/13 17:23:54;;;;;;;10.30;7.35;;;;;;;;;;6249169;28;20095;-64
2022/11/13 17:26:56;;;;;;;11.55;7.50;;;;;;;;;;6245326;28;20325;-63
2022/11/13 17:29:59;;;;;;;9.25;7.63;;;;;;;;;;6241528;28;20337;-63
2022/11/13 17:33:01;;;;;;;9.98;6.80;;;;;;;;;;6244929;28;20274;-63
2022/11/13 17:36:03;;;;;;;8.15;6.80;;;;;;;;;;6236094;28;20057;-63
2022/11/13 17:39:05;;;;;;;9.68;6.63;;;;;;;;;;6239372;28;20089;-63
2022/11/13 17:42:06;;;;;;;10.57;6.57;;;;;;;;;;6236869;28;20341;-62
2022/11/13 17:45:10;;;;;;;9.18;6.88;;;;;;;;;;6236525;28;20049;-63
2022/11/13 17:48:12;;;;;;;9.68;7.05;;;;;;;;;;6240222;28;20285;-63
2022/11/13 17:51:15;;;;;;;10.55;7.15;;;;;;;;;;6238600;28;20077;-62
2022/11/13 17:54:16;;;;;;;9.80;7.40;;;;;;;;;;6244540;28;20281;-63
2022/11/13 17:57:18;;;;;;;14.23;8.57;;;;;;;;;;6244650;28;20053;-63
2022/11/13 18:00:21;;;;;;;12.27;7.50;;;;;;;;;;6243765;28;20048;-64
2022/11/13 18:03:23;;;;;;;10.60;8.07;;;;;;;;;;6244223;28;20053;-63
2022/11/13 18:06:24;;;;;;;11.32;8.13;;;;;;;;;;6249603;28;20100;-63
2022/11/13 18:09:26;;;;;;;9.80;7.15;;;;;;;;;;6249199;28;20049;-64
2022/11/13 18:12:28;;;;;;;10.05;7.75;;;;;;;;;;6241745;28;20045;-62
2022/11/13 18:15:33;;;;;;;10.65;7.57;;;;;;;;;;6245165;28;20494;-65
2022/11/13 18:18:37;;;;;;;11.85;8.02;;;;;;;;;;6233174;28;20260;-63